Time;durP1;ratioP1;P1;durP2;ratioP2;P2;SDS_P1;SDS_P2;PMS_P1;PMS_P2;Temp;Humidity;BMP_temperature;BMP_pressure;BME280_temperature;BME280_humidity;BME280_pressure;Samples;Min_cycle;Max_cycle;Signal;HPM_P1;HPM_P2
2021/03/21 00:00:35;;;;;;;2.00;1.40;;;;;;;;;;5061817;28;20467;-73
2021/03/21 00:03:05;;;;;;;2.60;1.40;;;;;;;;;;5078266;28;20463;-73
2021/03/21 00:05:46;;;;;;;2.40;1.70;;;;;;;;;;5072464;28;20456;-73
2021/03/21 00:08:17;;;;;;;3.90;2.60;;;;;;;;;;5059613;28;20824;-73
2021/03/21 00:10:47;;;;;;;3.40;1.70;;;;;;;;;;5059493;28;20850;-74
2021/03/21 00:13:14;;;;;;;2.83;1.50;;;;;;;;;;5059533;28;20752;-73
2021/03/21 00:15:42;;;;;;;3.70;1.87;;;;;;;;;;5059140;28;20892;-73
2021/03/21 00:18:09;;;;;;;3.70;1.70;;;;;;;;;;5058518;28;20455;-73
2021/03/21 00:20:37;;;;;;;4.80;2.23;;;;;;;;;;5059537;28;20489;-73
2021/03/21 00:23:05;;;;;;;3.50;1.43;;;;;;;;;;5059699;28;20506;-73
2021/03/21 00:25:35;;;;;;;4.30;1.70;;;;;;;;;;5060125;28;20464;-73
2021/03/21 00:28:03;;;;;;;2.90;1.70;;;;;;;;;;5059622;28;20502;-73
2021/03/21 00:30:31;;;;;;;2.97;1.60;;;;;;;;;;5059985;28;20469;-73
2021/03/21 00:32:59;;;;;;;2.97;1.70;;;;;;;;;;5078061;28;20963;-73
2021/03/21 00:35:27;;;;;;;2.73;1.83;;;;;;;;;;5064869;28;21037;-73
2021/03/21 00:37:55;;;;;;;2.33;1.57;;;;;;;;;;5059563;28;20890;-73
2021/03/21 00:40:22;;;;;;;2.80;1.50;;;;;;;;;;5059048;28;20458;-73
2021/03/21 00:42:50;;;;;;;2.40;1.47;;;;;;;;;;5060250;28;20508;-73
2021/03/21 00:45:22;;;;;;;2.33;1.33;;;;;;;;;;5059188;28;20469;-73
2021/03/21 00:47:49;;;;;;;4.57;1.77;;;;;;;;;;5058280;28;20457;-73
2021/03/21 00:50:22;;;;;;;3.07;1.50;;;;;;;;;;5059749;28;20461;-73
2021/03/21 00:52:50;;;;;;;3.07;1.70;;;;;;;;;;5059068;28;20487;-73
2021/03/21 00:55:17;;;;;;;3.70;2.00;;;;;;;;;;5059448;28;20911;-73
2021/03/21 00:57:44;;;;;;;2.50;1.80;;;;;;;;;;5059342;28;20875;-73
2021/03/21 01:00:17;;;;;;;5.70;1.70;;;;;;;;;;5058575;28;20474;-73
2021/03/21 01:02:45;;;;;;;2.90;1.67;;;;;;;;;;5068035;28;20458;-73
2021/03/21 01:05:12;;;;;;;5.10;2.93;;;;;;;;;;5078833;28;20470;-73
2021/03/21 01:07:40;;;;;;;2.43;1.23;;;;;;;;;;5077869;28;20751;-73
2021/03/21 01:10:08;;;;;;;2.50;1.20;;;;;;;;;;5078563;28;21033;-73
2021/03/21 01:12:35;;;;;;;3.33;2.10;;;;;;;;;;5078309;28;20466;-73
2021/03/21 01:15:03;;;;;;;2.80;1.67;;;;;;;;;;5079039;28;20466;-73
2021/03/21 01:17:31;;;;;;;4.30;1.90;;;;;;;;;;5079099;28;20457;-73
2021/03/21 01:19:59;;;;;;;5.03;1.40;;;;;;;;;;5078044;28;20461;-73
2021/03/21 01:22:26;;;;;;;2.40;1.20;;;;;;;;;;5078114;28;20516;-73
2021/03/21 01:24:53;;;;;;;3.60;2.10;;;;;;;;;;5078742;28;20529;-73
2021/03/21 01:27:21;;;;;;;2.80;1.90;;;;;;;;;;5077885;28;20451;-73
2021/03/21 01:29:48;;;;;;;3.40;1.70;;;;;;;;;;5077974;28;20541;-73
2021/03/21 01:32:15;;;;;;;2.70;1.67;;;;;;;;;;5076213;28;20462;-74
2021/03/21 01:34:43;;;;;;;3.20;1.23;;;;;;;;;;5078622;28;20494;-73
2021/03/21 01:37:10;;;;;;;7.77;2.70;;;;;;;;;;5077604;28;20469;-73
2021/03/21 01:39:38;;;;;;;4.37;2.23;;;;;;;;;;5078078;28;20473;-73
2021/03/21 01:42:11;;;;;;;4.07;2.67;;;;;;;;;;5078287;28;20463;-73
2021/03/21 01:44:43;;;;;;;3.77;2.57;;;;;;;;;;5077542;28;20475;-73
2021/03/21 01:47:28;;;;;;;2.93;1.60;;;;;;;;;;5077796;28;20870;-73
2021/03/21 01:49:56;;;;;;;3.63;2.27;;;;;;;;;;5078005;28;20528;-73
2021/03/21 01:52:52;;;;;;;3.30;1.97;;;;;;;;;;5078091;28;20752;-73
2021/03/21 01:55:19;;;;;;;2.57;1.57;;;;;;;;;;5077938;28;20464;-73
2021/03/21 01:57:47;;;;;;;3.20;1.93;;;;;;;;;;5077484;28;20471;-73
2021/03/21 02:00:14;;;;;;;2.00;1.60;;;;;;;;;;5077730;28;20462;-73
2021/03/21 02:02:41;;;;;;;4.07;2.27;;;;;;;;;;5076444;28;20459;-73
2021/03/21 02:05:10;;;;;;;3.37;2.10;;;;;;;;;;5076104;28;20894;-73
2021/03/21 02:07:46;;;;;;;4.07;2.53;;;;;;;;;;5076850;28;20514;-73
2021/03/21 02:10:19;;;;;;;4.37;2.67;;;;;;;;;;5076833;28;20745;-73
2021/03/21 02:12:51;;;;;;;2.87;1.90;;;;;;;;;;5076589;28;20810;-73
2021/03/21 02:15:23;;;;;;;5.70;2.67;;;;;;;;;;5076360;28;20488;-73
2021/03/21 02:17:57;;;;;;;2.70;1.50;;;;;;;;;;5076868;28;20461;-73
2021/03/21 02:20:46;;;;;;;3.87;2.53;;;;;;;;;;5077081;28;20469;-73
2021/03/21 02:23:15;;;;;;;4.73;2.40;;;;;;;;;;5057478;28;20538;-73
2021/03/21 02:26:03;;;;;;;5.23;3.63;;;;;;;;;;5057922;28;20479;-72
2021/03/21 02:28:42;;;;;;;3.30;2.33;;;;;;;;;;5057775;28;20904;-73
2021/03/21 02:31:13;;;;;;;5.03;3.00;;;;;;;;;;5056648;28;20463;-72
2021/03/21 02:33:45;;;;;;;4.50;2.47;;;;;;;;;;5057528;28;20490;-73
2021/03/21 02:36:17;;;;;;;4.43;2.63;;;;;;;;;;5057888;28;20455;-72
2021/03/21 02:38:47;;;;;;;4.00;2.80;;;;;;;;;;5056460;28;20523;-73
2021/03/21 02:41:16;;;;;;;5.30;3.50;;;;;;;;;;5057371;28;20798;-73
2021/03/21 02:43:47;;;;;;;2.90;1.87;;;;;;;;;;5056834;28;20531;-73
2021/03/21 02:46:20;;;;;;;4.30;2.27;;;;;;;;;;5056833;28;20460;-73
2021/03/21 02:48:49;;;;;;;4.10;2.80;;;;;;;;;;5057078;28;20531;-74
2021/03/21 02:51:18;;;;;;;3.43;2.10;;;;;;;;;;5056466;28;20444;-74
2021/03/21 02:53:50;;;;;;;5.00;2.13;;;;;;;;;;5056336;28;20812;-74
2021/03/21 02:56:20;;;;;;;4.00;2.20;;;;;;;;;;5055962;28;20466;-73
2021/03/21 02:58:49;;;;;;;2.73;1.60;;;;;;;;;;5056166;28;20462;-73
2021/03/21 03:01:19;;;;;;;2.10;1.47;;;;;;;;;;5055908;28;20473;-73
2021/03/21 03:03:48;;;;;;;2.80;1.77;;;;;;;;;;5056482;28;20463;-74
2021/03/21 03:06:17;;;;;;;4.93;2.30;;;;;;;;;;5056256;28;20462;-74
2021/03/21 03:08:46;;;;;;;2.90;1.80;;;;;;;;;;5058900;28;20455;-74
2021/03/21 03:11:14;;;;;;;3.73;2.27;;;;;;;;;;5056481;28;20468;-74
2021/03/21 03:13:43;;;;;;;2.00;1.30;;;;;;;;;;5057792;28;20483;-74
2021/03/21 03:16:15;;;;;;;2.80;2.00;;;;;;;;;;5057915;28;20554;-74
2021/03/21 03:18:48;;;;;;;2.80;1.27;;;;;;;;;;5057713;28;20450;-74
2021/03/21 03:21:18;;;;;;;2.70;1.77;;;;;;;;;;5058759;28;20462;-74
2021/03/21 03:23:49;;;;;;;2.53;1.70;;;;;;;;;;5058798;28;20954;-75
2021/03/21 03:26:19;;;;;;;3.30;1.57;;;;;;;;;;5058211;28;20488;-74
2021/03/21 03:28:50;;;;;;;1.87;1.17;;;;;;;;;;5061775;28;20461;-73
2021/03/21 03:31:19;;;;;;;3.07;1.10;;;;;;;;;;5060216;28;20481;-73
2021/03/21 03:33:47;;;;;;;4.13;2.10;;;;;;;;;;5062175;28;21204;-73
2021/03/21 03:36:16;;;;;;;2.87;1.30;;;;;;;;;;5062214;28;20486;-73
2021/03/21 03:38:46;;;;;;;1.97;1.30;;;;;;;;;;5059819;28;20467;-73
2021/03/21 03:41:16;;;;;;;2.20;1.30;;;;;;;;;;5060063;28;20525;-73
2021/03/21 03:43:47;;;;;;;2.60;1.80;;;;;;;;;;5060379;28;20466;-73
2021/03/21 03:46:17;;;;;;;3.47;1.40;;;;;;;;;;5059859;28;20465;-73
2021/03/21 03:48:47;;;;;;;2.60;1.30;;;;;;;;;;5059858;28;20751;-73
2021/03/21 03:51:20;;;;;;;3.17;1.90;;;;;;;;;;5059839;28;20455;-73
2021/03/21 03:53:54;;;;;;;2.80;1.50;;;;;;;;;;5060227;28;20495;-73
2021/03/21 03:56:24;;;;;;;2.23;1.60;;;;;;;;;;5060700;28;20455;-74
2021/03/21 03:59:02;;;;;;;2.20;1.30;;;;;;;;;;5059585;28;20475;-74
2021/03/21 04:01:33;;;;;;;2.70;1.67;;;;;;;;;;5059737;28;20459;-74
2021/03/21 04:04:06;;;;;;;3.10;1.47;;;;;;;;;;5071358;28;20483;-74
2021/03/21 04:06:36;;;;;;;2.30;1.33;;;;;;;;;;5079480;28;20862;-74
2021/03/21 04:09:09;;;;;;;2.33;1.37;;;;;;;;;;5079156;28;20467;-73
2021/03/21 04:11:38;;;;;;;1.67;0.97;;;;;;;;;;5077583;28;20523;-74
2021/03/21 04:14:10;;;;;;;2.27;1.30;;;;;;;;;;5079693;28;20768;-74
2021/03/21 04:16:40;;;;;;;3.40;1.47;;;;;;;;;;5079815;28;20453;-73
2021/03/21 04:21:57;;;;;;;3.73;1.10;;;;;;;;;;5079360;28;20437;-73
2021/03/21 04:24:27;;;;;;;3.80;1.60;;;;;;;;;;5080764;28;20468;-73
2021/03/21 04:26:56;;;;;;;2.67;1.33;;;;;;;;;;5079563;28;20464;-73
2021/03/21 04:29:25;;;;;;;1.67;1.17;;;;;;;;;;5080448;28;20490;-73
2021/03/21 04:31:54;;;;;;;4.67;1.40;;;;;;;;;;5072067;28;20769;-74
2021/03/21 04:34:25;;;;;;;1.90;0.90;;;;;;;;;;5059500;28;20585;-74
2021/03/21 04:36:54;;;;;;;2.57;1.27;;;;;;;;;;5060064;28;20461;-73
2021/03/21 04:39:24;;;;;;;2.20;1.40;;;;;;;;;;5059219;28;20474;-74
2021/03/21 04:41:54;;;;;;;3.70;2.30;;;;;;;;;;5059204;28;20490;-73
2021/03/21 04:44:23;;;;;;;3.83;1.10;;;;;;;;;;5060173;28;20476;-73
2021/03/21 04:46:52;;;;;;;5.30;1.00;;;;;;;;;;5059079;28;20454;-73
2021/03/21 04:49:20;;;;;;;1.50;0.90;;;;;;;;;;5059693;28;20470;-73
2021/03/21 04:51:48;;;;;;;2.90;0.97;;;;;;;;;;5060036;28;20465;-73
2021/03/21 04:54:18;;;;;;;3.07;1.27;;;;;;;;;;5058826;28;20499;-73
2021/03/21 04:56:49;;;;;;;2.37;1.07;;;;;;;;;;5056982;28;20556;-73
2021/03/21 04:59:19;;;;;;;2.83;1.20;;;;;;;;;;5058870;28;20473;-73
2021/03/21 05:02:05;;;;;;;1.77;1.10;;;;;;;;;;5078410;28;20451;-73
2021/03/21 05:04:34;;;;;;;5.00;1.50;;;;;;;;;;5078949;28;20524;-73
2021/03/21 05:07:03;;;;;;;5.40;1.50;;;;;;;;;;5078731;28;20459;-73
2021/03/21 05:09:33;;;;;;;4.97;1.57;;;;;;;;;;5078234;28;20539;-72
2021/03/21 05:12:04;;;;;;;5.20;1.87;;;;;;;;;;5078522;28;20747;-72
2021/03/21 05:14:34;;;;;;;13.53;2.70;;;;;;;;;;5078488;28;20509;-72
2021/03/21 05:17:03;;;;;;;4.97;1.23;;;;;;;;;;5078665;28;20458;-72
2021/03/21 05:19:40;;;;;;;13.57;2.00;;;;;;;;;;5078591;28;20463;-72
2021/03/21 05:22:09;;;;;;;3.43;1.90;;;;;;;;;;5078060;28;20469;-72
2021/03/21 05:24:39;;;;;;;6.17;1.70;;;;;;;;;;5078278;28;20465;-71
2021/03/21 05:27:10;;;;;;;7.43;2.33;;;;;;;;;;5078251;28;20467;-73
2021/03/21 05:29:43;;;;;;;2.73;1.70;;;;;;;;;;5060357;28;20543;-72
2021/03/21 05:32:12;;;;;;;3.57;1.30;;;;;;;;;;5057726;28;20463;-72
2021/03/21 05:34:40;;;;;;;10.00;4.03;;;;;;;;;;5058352;28;20663;-72
2021/03/21 05:37:12;;;;;;;2.80;1.20;;;;;;;;;;5056949;28;20455;-72
2021/03/21 05:39:43;;;;;;;15.33;2.37;;;;;;;;;;5059010;28;20488;-72
2021/03/21 05:42:28;;;;;;;3.73;1.33;;;;;;;;;;5058732;28;20475;-73
2021/03/21 05:45:11;;;;;;;7.90;1.80;;;;;;;;;;5058391;28;21078;-74
2021/03/21 05:47:46;;;;;;;5.73;1.60;;;;;;;;;;5057790;28;20841;-73
2021/03/21 05:50:28;;;;;;;13.73;2.40;;;;;;;;;;5057796;28;20457;-73
2021/03/21 05:53:10;;;;;;;13.30;2.40;;;;;;;;;;5057615;28;20712;-73
2021/03/21 05:55:51;;;;;;;6.40;2.60;;;;;;;;;;5055944;28;20454;-73
2021/03/21 05:58:33;;;;;;;8.40;2.20;;;;;;;;;;5057392;28;20473;-73
2021/03/21 06:01:31;;;;;;;19.47;3.47;;;;;;;;;;5072887;28;20922;-73
2021/03/21 06:04:17;;;;;;;7.67;2.77;;;;;;;;;;5077746;28;20476;-73
2021/03/21 06:06:59;;;;;;;11.87;3.00;;;;;;;;;;5076433;28;20454;-73
2021/03/21 06:09:38;;;;;;;13.53;2.40;;;;;;;;;;5044279;28;20452;-73
2021/03/21 06:12:16;;;;;;;17.63;2.73;;;;;;;;;;5067741;28;20458;-73
2021/03/21 06:15:01;;;;;;;11.10;3.03;;;;;;;;;;5056084;28;20898;-74
2021/03/21 06:17:43;;;;;;;9.23;2.77;;;;;;;;;;5056598;28;20507;-73
2021/03/21 06:20:31;;;;;;;7.60;2.70;;;;;;;;;;5058123;28;20455;-74
2021/03/21 06:23:22;;;;;;;6.47;1.63;;;;;;;;;;5032827;28;20485;-73
2021/03/21 06:25:56;;;;;;;22.67;4.67;;;;;;;;;;5037526;28;20471;-73
2021/03/21 06:28:44;;;;;;;16.67;4.00;;;;;;;;;;5056444;28;20459;-73
2021/03/21 06:31:26;;;;;;;15.83;2.83;;;;;;;;;;5057513;28;20878;-73
2021/03/21 06:33:58;;;;;;;11.00;3.20;;;;;;;;;;5041821;28;20495;-73
2021/03/21 06:36:30;;;;;;;13.83;3.70;;;;;;;;;;5057352;28;20724;-75
2021/03/21 06:39:11;;;;;;;19.87;3.90;;;;;;;;;;5057032;28;20472;-73
2021/03/21 06:41:56;;;;;;;10.00;2.30;;;;;;;;;;5075623;28;20464;-73
2021/03/21 06:44:40;;;;;;;11.97;3.77;;;;;;;;;;5077617;28;20464;-72
2021/03/21 06:47:28;;;;;;;16.97;6.20;;;;;;;;;;5076910;28;20478;-73
2021/03/21 06:50:03;;;;;;;20.30;3.67;;;;;;;;;;5070537;28;20491;-73
2021/03/21 06:52:47;;;;;;;16.83;3.27;;;;;;;;;;5057663;28;20478;-72
2021/03/21 06:55:19;;;;;;;10.60;3.30;;;;;;;;;;5054499;28;20519;-73
2021/03/21 06:58:01;;;;;;;12.80;3.40;;;;;;;;;;5057263;28;20498;-73
2021/03/21 07:00:46;;;;;;;13.23;2.83;;;;;;;;;;5057156;28;20458;-72
2021/03/21 07:03:28;;;;;;;16.90;3.20;;;;;;;;;;5061693;28;20501;-73
2021/03/21 07:06:22;;;;;;;14.30;2.93;;;;;;;;;;5061581;28;20467;-73
2021/03/21 07:09:05;;;;;;;17.17;3.50;;;;;;;;;;5060492;28;20454;-73
2021/03/21 07:11:56;;;;;;;12.80;3.80;;;;;;;;;;5061188;28;20530;-73
2021/03/21 07:14:42;;;;;;;15.87;4.47;;;;;;;;;;5061470;28;20487;-73
2021/03/21 07:17:23;;;;;;;14.47;2.67;;;;;;;;;;5061497;28;20462;-73
2021/03/21 07:20:11;;;;;;;19.27;3.43;;;;;;;;;;5061294;28;20472;-73
2021/03/21 07:22:56;;;;;;;20.83;3.07;;;;;;;;;;5061623;28;20455;-72
2021/03/21 07:25:44;;;;;;;13.57;2.27;;;;;;;;;;5060799;28;20480;-73
2021/03/21 07:28:32;;;;;;;13.93;3.20;;;;;;;;;;5060372;28;20553;-73
2021/03/21 07:31:06;;;;;;;27.17;4.63;;;;;;;;;;5034931;28;20475;-73
2021/03/21 07:33:59;;;;;;;12.27;4.50;;;;;;;;;;5059319;28;20952;-73
2021/03/21 07:40:00;;;;;;;16.00;7.00;;;;;;;;;;5067228;28;20454;-72
2021/03/21 07:42:43;;;;;;;13.03;3.30;;;;;;;;;;5060092;28;20447;-73
2021/03/21 07:45:30;;;;;;;21.70;5.50;;;;;;;;;;5070010;28;20537;-73
2021/03/21 07:48:15;;;;;;;12.97;3.77;;;;;;;;;;5079713;28;20455;-73
2021/03/21 07:50:50;;;;;;;17.07;3.00;;;;;;;;;;5070993;28;20468;-73
2021/03/21 07:53:32;;;;;;;28.23;5.30;;;;;;;;;;5077400;28;20442;-73
2021/03/21 07:56:04;;;;;;;23.77;5.50;;;;;;;;;;5079309;28;20660;-72
2021/03/21 07:58:34;;;;;;;17.23;2.80;;;;;;;;;;5078629;28;20459;-73
2021/03/21 08:01:03;;;;;;;12.00;2.90;;;;;;;;;;5078863;28;20554;-73
2021/03/21 08:03:51;;;;;;;23.03;3.77;;;;;;;;;;5079331;28;20467;-74
2021/03/21 08:06:30;;;;;;;17.60;4.67;;;;;;;;;;5087839;28;20483;-73
2021/03/21 08:09:04;;;;;;;27.70;5.60;;;;;;;;;;5073192;28;20463;-73
2021/03/21 08:11:34;;;;;;;20.63;4.67;;;;;;;;;;5066783;28;20562;-73
2021/03/21 08:14:15;;;;;;;19.07;4.40;;;;;;;;;;5070249;28;20487;-74
2021/03/21 08:16:51;;;;;;;27.13;5.03;;;;;;;;;;5065995;28;20470;-73
2021/03/21 08:19:28;;;;;;;21.07;4.77;;;;;;;;;;5078275;28;20458;-73
2021/03/21 08:21:58;;;;;;;22.80;4.43;;;;;;;;;;5079616;28;20470;-73
2021/03/21 08:24:30;;;;;;;10.57;2.60;;;;;;;;;;5079175;28;20924;-73
2021/03/21 08:26:59;;;;;;;17.17;7.90;;;;;;;;;;5068996;28;20534;-73
2021/03/21 08:29:27;;;;;;;26.70;5.80;;;;;;;;;;5059985;28;20561;-73
2021/03/21 08:32:07;;;;;;;21.73;5.40;;;;;;;;;;5059524;28;20474;-73
2021/03/21 08:34:39;;;;;;;24.80;5.20;;;;;;;;;;5060436;28;20781;-73
2021/03/21 08:37:26;;;;;;;16.73;4.20;;;;;;;;;;5077168;28;20862;-73
2021/03/21 08:39:55;;;;;;;22.13;5.73;;;;;;;;;;5078463;28;20489;-73
2021/03/21 08:42:29;;;;;;;18.77;5.17;;;;;;;;;;5078339;28;20444;-73
2021/03/21 08:45:02;;;;;;;17.90;4.43;;;;;;;;;;5077886;28;20463;-73
2021/03/21 08:47:30;;;;;;;9.37;2.50;;;;;;;;;;5078374;28;20704;-72
2021/03/21 08:49:59;;;;;;;22.37;5.00;;;;;;;;;;5077622;28;20464;-73
2021/03/21 08:52:30;;;;;;;17.30;5.10;;;;;;;;;;5076999;28;20887;-74
2021/03/21 08:54:58;;;;;;;16.33;3.30;;;;;;;;;;5070801;28;20482;-73
2021/03/21 08:57:30;;;;;;;25.87;5.50;;;;;;;;;;5061096;28;20855;-73
2021/03/21 09:00:14;;;;;;;23.50;4.33;;;;;;;;;;5059657;28;20463;-73
2021/03/21 09:02:43;;;;;;;31.73;6.60;;;;;;;;;;5061136;28;20469;-73
2021/03/21 09:05:13;;;;;;;25.30;4.97;;;;;;;;;;5076467;28;20522;-73
2021/03/21 09:07:44;;;;;;;19.10;4.20;;;;;;;;;;5073611;28;20742;-73
2021/03/21 09:10:26;;;;;;;30.30;4.57;;;;;;;;;;5060303;28;20477;-72
2021/03/21 09:12:57;;;;;;;16.53;4.27;;;;;;;;;;5058800;28;20518;-73
2021/03/21 09:15:37;;;;;;;21.37;6.17;;;;;;;;;;5057530;28;20492;-73
2021/03/21 09:18:08;;;;;;;13.43;3.70;;;;;;;;;;5059815;28;20456;-73
2021/03/21 09:20:38;;;;;;;12.37;3.23;;;;;;;;;;5058118;28;20450;-73
2021/03/21 09:23:20;;;;;;;15.20;3.63;;;;;;;;;;5057094;28;20466;-73
2021/03/21 09:25:55;;;;;;;17.83;4.60;;;;;;;;;;5057632;28;20944;-73
2021/03/21 09:28:24;;;;;;;20.70;4.10;;;;;;;;;;5056692;28;20499;-73
2021/03/21 09:31:28;;;;;;;22.60;4.13;;;;;;;;;;5056690;28;20467;-72
2021/03/21 09:34:02;;;;;;;23.80;3.67;;;;;;;;;;5057797;28;20941;-73
2021/03/21 09:36:38;;;;;;;15.03;3.70;;;;;;;;;;5057351;28;20876;-73
2021/03/21 09:39:10;;;;;;;11.33;3.00;;;;;;;;;;5057105;28;20479;-73
2021/03/21 09:41:39;;;;;;;20.80;5.23;;;;;;;;;;5057677;28;20468;-73
2021/03/21 09:44:10;;;;;;;12.93;2.80;;;;;;;;;;5057344;28;20465;-72
2021/03/21 09:46:45;;;;;;;20.10;4.37;;;;;;;;;;5062301;28;20801;-72
2021/03/21 09:49:17;;;;;;;17.30;4.40;;;;;;;;;;5077243;28;20457;-73
2021/03/21 09:51:51;;;;;;;21.23;4.20;;;;;;;;;;5076768;28;20522;-73
2021/03/21 09:54:37;;;;;;;9.07;3.40;;;;;;;;;;5076401;28;20480;-73
2021/03/21 09:57:27;;;;;;;13.00;3.30;;;;;;;;;;5065618;28;20469;-73
2021/03/21 09:59:57;;;;;;;22.20;4.90;;;;;;;;;;5056120;28;20454;-73
2021/03/21 10:02:28;;;;;;;14.83;4.07;;;;;;;;;;5055839;28;20443;-72
2021/03/21 10:04:59;;;;;;;16.40;3.53;;;;;;;;;;5056238;28;20465;-73
2021/03/21 10:07:32;;;;;;;21.30;3.53;;;;;;;;;;5055593;28;20457;-72
2021/03/21 10:10:03;;;;;;;12.53;2.90;;;;;;;;;;5056709;28;20489;-73
2021/03/21 10:12:31;;;;;;;13.63;3.23;;;;;;;;;;5057848;28;20488;-72
2021/03/21 10:15:01;;;;;;;11.57;2.70;;;;;;;;;;5057999;28;21387;-72
2021/03/21 10:17:57;;;;;;;20.27;3.97;;;;;;;;;;5056462;28;20465;-73
2021/03/21 10:20:50;;;;;;;15.43;3.30;;;;;;;;;;5056873;28;20526;-73
2021/03/21 10:23:22;;;;;;;14.73;3.40;;;;;;;;;;5054605;28;20466;-73
2021/03/21 10:25:55;;;;;;;15.80;3.50;;;;;;;;;;5056263;28;20555;-73
2021/03/21 10:28:33;;;;;;;17.90;3.50;;;;;;;;;;5056822;28;20494;-72
2021/03/21 10:31:19;;;;;;;18.80;2.83;;;;;;;;;;5056515;28;20890;-73
2021/03/21 10:33:52;;;;;;;9.63;2.07;;;;;;;;;;5057153;28;21094;-72
2021/03/21 10:36:49;;;;;;;15.77;2.87;;;;;;;;;;5055875;28;20473;-73
2021/03/21 10:39:46;;;;;;;7.83;3.30;;;;;;;;;;5056967;28;20768;-73
2021/03/21 10:42:39;;;;;;;11.67;3.30;;;;;;;;;;5060076;28;20458;-73
2021/03/21 10:45:11;;;;;;;19.37;4.03;;;;;;;;;;5075978;28;20517;-72
2021/03/21 10:47:42;;;;;;;16.17;4.80;;;;;;;;;;5097791;28;20467;-73
2021/03/21 10:53:28;;;;;;;12.80;3.00;;;;;;;;;;5076114;28;20560;-73
2021/03/21 10:56:07;;;;;;;13.47;4.80;;;;;;;;;;5075303;28;20496;-71
2021/03/21 10:59:09;;;;;;;7.43;1.73;;;;;;;;;;5055762;28;20487;-73
2021/03/21 11:01:40;;;;;;;9.07;2.20;;;;;;;;;;4993499;28;20545;-73
2021/03/21 11:04:23;;;;;;;10.17;2.57;;;;;;;;;;5007802;28;20521;-73
2021/03/21 11:06:57;;;;;;;9.33;2.43;;;;;;;;;;5036507;28;20466;-72
2021/03/21 11:09:26;;;;;;;12.97;3.03;;;;;;;;;;5056482;28;20749;-73
2021/03/21 11:11:55;;;;;;;6.50;2.53;;;;;;;;;;5054969;28;21099;-72
2021/03/21 11:14:30;;;;;;;13.47;2.67;;;;;;;;;;5056500;28;20514;-72
2021/03/21 11:17:08;;;;;;;16.73;3.83;;;;;;;;;;5056106;28;20464;-72
2021/03/21 11:19:37;;;;;;;5.67;2.00;;;;;;;;;;5055889;28;20473;-72
2021/03/21 11:22:14;;;;;;;11.80;3.60;;;;;;;;;;5056031;28;20630;-72
2021/03/21 11:25:01;;;;;;;8.57;2.70;;;;;;;;;;5055645;28;20649;-72
2021/03/21 11:27:30;;;;;;;12.47;3.67;;;;;;;;;;5055906;28;20449;-72
2021/03/21 11:30:09;;;;;;;6.20;1.57;;;;;;;;;;5059748;28;20625;-73
2021/03/21 11:32:39;;;;;;;11.87;2.70;;;;;;;;;;5063883;28;20529;-72
2021/03/21 11:35:20;;;;;;;11.03;2.60;;;;;;;;;;5061260;28;20574;-73
2021/03/21 11:38:28;;;;;;;9.63;2.23;;;;;;;;;;5059050;28;20466;-72
2021/03/21 11:41:00;;;;;;;13.37;2.87;;;;;;;;;;5072039;28;20474;-72
2021/03/21 11:43:31;;;;;;;13.17;2.50;;;;;;;;;;5065105;28;20810;-73
2021/03/21 11:46:23;;;;;;;12.37;2.70;;;;;;;;;;5076053;28;20473;-73
2021/03/21 11:48:52;;;;;;;11.93;2.87;;;;;;;;;;5078729;28;20526;-73
2021/03/21 11:51:19;;;;;;;18.87;2.50;;;;;;;;;;5075155;28;20445;-73
2021/03/21 11:53:49;;;;;;;10.83;2.57;;;;;;;;;;5071063;28;20594;-72
2021/03/21 11:56:29;;;;;;;17.23;2.70;;;;;;;;;;5058893;28;20544;-72
2021/03/21 11:58:58;;;;;;;11.13;3.40;;;;;;;;;;5058669;28;20784;-73
2021/03/21 12:01:32;;;;;;;9.93;2.40;;;;;;;;;;5058413;28;20527;-72
2021/03/21 12:04:03;;;;;;;7.97;2.37;;;;;;;;;;5078201;28;20479;-71
2021/03/21 12:06:34;;;;;;;11.10;2.40;;;;;;;;;;5078362;28;20915;-73
2021/03/21 12:09:15;;;;;;;7.70;2.40;;;;;;;;;;5078242;28;20561;-70
2021/03/21 12:11:46;;;;;;;14.67;2.90;;;;;;;;;;5057833;28;20455;-72
2021/03/21 12:14:35;;;;;;;15.20;3.00;;;;;;;;;;5057376;28;21006;-72
2021/03/21 12:17:20;;;;;;;9.07;2.70;;;;;;;;;;5052641;28;20469;-72
2021/03/21 12:19:50;;;;;;;12.93;3.23;;;;;;;;;;5058011;28;20888;-72
2021/03/21 12:22:23;;;;;;;9.17;2.33;;;;;;;;;;5057994;28;20869;-72
2021/03/21 12:24:57;;;;;;;9.13;2.20;;;;;;;;;;5057876;28;20502;-72
2021/03/21 12:27:34;;;;;;;6.07;1.60;;;;;;;;;;5057091;28;20472;-72
2021/03/21 12:30:06;;;;;;;27.97;4.13;;;;;;;;;;5058276;28;20452;-73
2021/03/21 12:32:40;;;;;;;10.33;2.20;;;;;;;;;;5058257;28;20465;-73
2021/03/21 12:35:15;;;;;;;12.17;2.07;;;;;;;;;;5056393;28;20590;-72
2021/03/21 12:37:52;;;;;;;6.93;1.77;;;;;;;;;;5057791;28;20469;-72
2021/03/21 12:40:32;;;;;;;6.93;2.20;;;;;;;;;;5058222;28;20513;-74
2021/03/21 12:43:16;;;;;;;14.60;2.17;;;;;;;;;;5058665;28;20503;-72
2021/03/21 12:45:55;;;;;;;8.10;2.00;;;;;;;;;;5058886;28;20809;-72
2021/03/21 12:48:24;;;;;;;9.20;2.10;;;;;;;;;;5058049;28;20469;-72
2021/03/21 12:50:59;;;;;;;6.00;2.83;;;;;;;;;;5058033;28;20456;-72
2021/03/21 12:53:31;;;;;;;14.97;1.80;;;;;;;;;;5058912;28;20721;-72
2021/03/21 12:56:03;;;;;;;8.03;2.77;;;;;;;;;;5057824;28;20673;-72
2021/03/21 12:58:31;;;;;;;7.40;3.27;;;;;;;;;;5055808;28;20462;-72
2021/03/21 13:01:01;;;;;;;7.23;2.47;;;;;;;;;;5057835;28;20494;-72
2021/03/21 13:03:30;;;;;;;9.20;2.70;;;;;;;;;;5057390;28;20751;-72
2021/03/21 13:06:00;;;;;;;9.47;2.03;;;;;;;;;;5058074;28;20466;-72
2021/03/21 13:08:30;;;;;;;6.13;1.93;;;;;;;;;;5056720;28;20471;-71
2021/03/21 13:11:03;;;;;;;5.67;2.27;;;;;;;;;;5056207;28;20454;-71
2021/03/21 13:13:33;;;;;;;7.40;1.47;;;;;;;;;;5057009;28;20468;-71
2021/03/21 13:16:06;;;;;;;8.13;2.17;;;;;;;;;;5057168;28;20467;-72
2021/03/21 13:18:34;;;;;;;4.17;1.70;;;;;;;;;;5056800;28;20466;-72
2021/03/21 13:21:03;;;;;;;4.13;1.70;;;;;;;;;;5057017;28;20514;-72
2021/03/21 13:23:30;;;;;;;7.00;2.03;;;;;;;;;;5058129;28;20458;-72
2021/03/21 13:26:00;;;;;;;6.73;2.00;;;;;;;;;;5057341;28;20563;-72
2021/03/21 13:28:36;;;;;;;9.43;1.90;;;;;;;;;;5057138;28;20943;-72
2021/03/21 13:31:05;;;;;;;9.50;1.73;;;;;;;;;;5055671;28;20457;-71
2021/03/21 13:33:34;;;;;;;8.73;2.53;;;;;;;;;;5055376;28;20604;-71
2021/03/21 13:36:08;;;;;;;15.80;2.90;;;;;;;;;;5055683;28;20741;-71
2021/03/21 13:38:36;;;;;;;6.20;2.07;;;;;;;;;;5056269;28;20461;-72
2021/03/21 13:41:11;;;;;;;7.63;1.70;;;;;;;;;;5056494;28;20537;-72
2021/03/21 13:43:41;;;;;;;8.77;1.80;;;;;;;;;;5064268;28;20449;-73
2021/03/21 13:46:12;;;;;;;13.17;1.77;;;;;;;;;;5075772;28;20842;-72
2021/03/21 13:48:43;;;;;;;10.17;2.07;;;;;;;;;;5068090;28;20500;-73
2021/03/21 13:51:11;;;;;;;5.50;1.67;;;;;;;;;;5056778;28;20734;-72
2021/03/21 13:53:38;;;;;;;8.27;2.10;;;;;;;;;;5057956;28;20458;-72
2021/03/21 13:56:10;;;;;;;8.33;2.60;;;;;;;;;;5056369;28;20719;-71
2021/03/21 13:58:37;;;;;;;7.50;2.70;;;;;;;;;;5061720;28;20463;-72
2021/03/21 14:01:08;;;;;;;6.37;1.33;;;;;;;;;;5057256;28;20635;-73
2021/03/21 14:03:35;;;;;;;5.50;1.63;;;;;;;;;;5055626;28;20561;-73
2021/03/21 14:06:03;;;;;;;6.90;2.00;;;;;;;;;;5056927;28;20471;-73
2021/03/21 14:08:33;;;;;;;10.27;1.90;;;;;;;;;;5054895;28;20457;-72
2021/03/21 14:11:04;;;;;;;6.77;2.10;;;;;;;;;;5055229;28;20522;-73
2021/03/21 14:13:32;;;;;;;4.60;1.13;;;;;;;;;;5056177;28;20477;-72
2021/03/21 14:15:59;;;;;;;6.80;1.67;;;;;;;;;;5056392;28;20501;-73
2021/03/21 14:18:26;;;;;;;5.37;1.20;;;;;;;;;;5057518;28;20765;-73
2021/03/21 14:20:57;;;;;;;5.67;1.90;;;;;;;;;;5055948;28;20488;-73
2021/03/21 14:23:28;;;;;;;9.80;1.50;;;;;;;;;;5055794;28;20847;-73
2021/03/21 14:25:57;;;;;;;7.63;1.20;;;;;;;;;;5054865;28;20461;-73
2021/03/21 14:28:25;;;;;;;6.20;1.20;;;;;;;;;;5063001;28;20469;-73
2021/03/21 14:30:53;;;;;;;4.80;1.40;;;;;;;;;;5074721;28;20441;-72
2021/03/21 14:33:22;;;;;;;8.87;2.07;;;;;;;;;;5059379;28;20504;-72
2021/03/21 14:35:50;;;;;;;9.70;2.30;;;;;;;;;;5055514;28;20490;-72
2021/03/21 14:38:18;;;;;;;8.00;2.60;;;;;;;;;;5055667;28;20749;-72
2021/03/21 14:40:48;;;;;;;6.17;1.83;;;;;;;;;;5063504;28;20461;-72
2021/03/21 14:43:18;;;;;;;5.13;1.43;;;;;;;;;;5077302;28;20555;-72
2021/03/21 14:45:45;;;;;;;6.00;1.70;;;;;;;;;;5075567;28;20461;-72
2021/03/21 14:48:15;;;;;;;7.27;1.20;;;;;;;;;;5075967;28;20457;-72
2021/03/21 14:50:43;;;;;;;8.23;2.03;;;;;;;;;;5072914;28;20599;-73
2021/03/21 14:53:16;;;;;;;6.10;1.60;;;;;;;;;;5060393;28;20474;-72
2021/03/21 14:55:47;;;;;;;7.93;1.40;;;;;;;;;;5060602;28;20478;-72
2021/03/21 14:58:17;;;;;;;7.13;1.47;;;;;;;;;;5058793;28;20824;-72
2021/03/21 15:00:46;;;;;;;5.60;1.07;;;;;;;;;;5076433;28;20739;-73
2021/03/21 15:03:19;;;;;;;8.07;2.80;;;;;;;;;;5076602;28;20534;-71
2021/03/21 15:05:48;;;;;;;4.87;1.30;;;;;;;;;;5076271;28;20460;-72
2021/03/21 15:08:19;;;;;;;4.33;0.83;;;;;;;;;;5067511;28;20501;-72
2021/03/21 15:10:48;;;;;;;8.33;2.27;;;;;;;;;;5064060;28;20479;-72
2021/03/21 15:13:16;;;;;;;7.70;1.97;;;;;;;;;;5076403;28;20545;-72
2021/03/21 15:15:48;;;;;;;6.73;2.20;;;;;;;;;;5065574;28;20551;-72
2021/03/21 15:18:18;;;;;;;7.30;1.53;;;;;;;;;;5054992;28;20551;-72
2021/03/21 15:20:49;;;;;;;5.90;1.60;;;;;;;;;;5055389;28;20482;-72
2021/03/21 15:23:17;;;;;;;12.73;1.60;;;;;;;;;;5058645;28;20504;-72
2021/03/21 15:25:47;;;;;;;9.00;1.70;;;;;;;;;;5059666;28;20447;-72